createdAt,value
2023-01-09T00:00:30.800Z,6.88
2023-01-09T00:01:01.594Z,6.88
2023-01-09T00:01:34.365Z,6.88
2023-01-09T00:02:05.497Z,6.88
2023-01-09T00:02:35.393Z,6.88
2023-01-09T00:02:53.513Z,6.88
2023-01-09T00:03:25.442Z,6.88
2023-01-09T00:03:58.449Z,6.88
2023-01-09T00:04:29.528Z,6.88
2023-01-09T00:05:02.466Z,6.88
2023-01-09T00:05:33.472Z,6.88
2023-01-09T00:06:05.522Z,6.88
2023-01-09T00:06:35.359Z,6.88
2023-01-09T00:06:53.539Z,6.88
2023-01-09T00:07:25.408Z,6.88
2023-01-09T00:07:43.019Z,6.88
2023-01-09T00:08:13.409Z,6.88
2023-01-09T00:08:34.559Z,6.88
2023-01-09T00:09:01.775Z,6.88
2023-01-09T00:09:33.573Z,6.88
2023-01-09T00:10:06.259Z,6.88
2023-01-09T00:10:34.973Z,6.88
2023-01-09T00:10:53.636Z,6.88
2023-01-09T00:11:25.478Z,6.88
2023-01-09T00:11:42.303Z,6.88
2023-01-09T00:12:14.347Z,6.88
2023-01-09T00:12:34.330Z,6.88
2023-01-09T00:13:01.522Z,6.88
2023-01-09T00:13:33.576Z,6.88
2023-01-09T00:14:05.592Z,6.88
2023-01-09T00:14:34.768Z,6.88
2023-01-09T00:14:53.539Z,6.88
2023-01-09T00:15:26.367Z,6.88
2023-01-09T00:15:58.236Z,6.88
2023-01-09T00:16:30.263Z,6.88
2023-01-09T00:17:01.696Z,6.88
2023-01-09T00:17:34.580Z,6.88
2023-01-09T00:18:05.452Z,6.88
2023-01-09T00:18:34.665Z,6.88
2023-01-09T00:18:53.642Z,6.88
2023-01-09T00:19:25.451Z,6.88
2023-01-09T00:19:58.412Z,6.88
2023-01-09T00:20:29.688Z,6.88
2023-01-09T00:21:02.228Z,6.88
2023-01-09T00:21:33.554Z,6.88
2023-01-09T00:22:06.326Z,6.88
2023-01-09T00:22:34.376Z,6.88
2023-01-09T00:22:53.408Z,6.88
2023-01-09T00:23:25.511Z,6.88
2023-01-09T00:23:42.445Z,6.88
2023-01-09T00:24:14.184Z,6.88
2023-01-09T00:24:34.669Z,6.88
2023-01-09T00:25:01.571Z,6.88
2023-01-09T00:25:33.843Z,6.88
2023-01-09T00:26:05.551Z,6.88
2023-01-09T00:26:34.199Z,6.88
2023-01-09T00:26:53.509Z,6.88
2023-01-09T00:27:26.097Z,6.88
2023-01-09T00:27:57.449Z,6.88
2023-01-09T00:28:30.203Z,6.88
2023-01-09T00:29:01.582Z,6.88
2023-01-09T00:29:34.896Z,6.88
2023-01-09T00:30:05.619Z,6.77
2023-01-09T00:30:34.433Z,6.77
2023-01-09T00:30:53.724Z,6.77
2023-01-09T00:31:25.526Z,6.77
2023-01-09T00:31:42.335Z,6.77
2023-01-09T00:32:13.480Z,6.77
2023-01-09T00:32:34.265Z,6.77
2023-01-09T00:33:02.282Z,6.77
2023-01-09T00:33:33.421Z,6.77
2023-01-09T00:34:06.324Z,6.77
2023-01-09T00:34:34.390Z,6.77
2023-01-09T00:34:53.535Z,6.77
2023-01-09T00:35:59.846Z,6.77
2023-01-09T00:36:04.808Z,6.77
2023-01-09T00:36:53.582Z,6.77
2023-01-09T00:37:33.837Z,6.77
2023-01-09T00:38:05.525Z,6.77
2023-01-09T00:38:34.396Z,6.77
2023-01-09T00:38:53.431Z,6.77
2023-01-09T00:39:26.215Z,6.77
2023-01-09T00:39:57.544Z,6.77
2023-01-09T00:40:30.400Z,6.72
2023-01-09T00:41:01.655Z,6.72
2023-01-09T00:41:34.263Z,6.72
2023-01-09T00:42:05.521Z,6.72
2023-01-09T00:43:11.686Z,6.72
2023-01-09T00:44:17.872Z,6.72
2023-01-09T00:45:02.840Z,6.72
2023-01-09T00:45:34.206Z,6.72
2023-01-09T00:46:05.534Z,6.72
2023-01-09T00:46:34.376Z,6.72
2023-01-09T00:46:54.151Z,6.72
2023-01-09T00:47:25.413Z,6.72
2023-01-09T00:47:42.418Z,6.72
2023-01-09T00:48:48.579Z,6.72
2023-01-09T00:48:52.440Z,6.72
2023-01-09T00:49:48.183Z,6.72
2023-01-09T00:50:54.510Z,6.72
2023-01-09T00:51:16.248Z,6.72
2023-01-09T00:51:51.683Z,6.72
2023-01-09T00:52:27.839Z,6.72
2023-01-09T00:53:09.981Z,6.72
2023-01-09T00:53:58.719Z,6.72
2023-01-09T00:54:40.564Z,6.72
2023-01-09T00:55:46.874Z,6.72
2023-01-09T00:56:53.065Z,6.72
2023-01-09T00:57:59.303Z,6.72
2023-01-09T00:59:05.473Z,6.72
2023-01-09T01:00:11.838Z,6.72
2023-01-09T01:01:18.168Z,6.72
2023-01-09T01:02:24.492Z,6.72
2023-01-09T01:03:30.731Z,6.72
2023-01-09T01:04:36.889Z,6.72
2023-01-09T01:05:43.208Z,6.72
2023-01-09T01:06:49.356Z,6.72
2023-01-09T01:07:55.504Z,6.72
2023-01-09T01:09:01.759Z,6.72
2023-01-09T01:10:08.077Z,6.72
2023-01-09T01:11:14.250Z,6.72
2023-01-09T01:12:20.421Z,6.72
2023-01-09T01:13:26.600Z,6.72
2023-01-09T01:14:32.778Z,6.72
2023-01-09T01:15:39.155Z,6.72
2023-01-09T01:16:45.334Z,6.72
2023-01-09T01:17:51.518Z,6.72
2023-01-09T01:18:57.667Z,6.72
2023-01-09T01:20:03.987Z,6.72
2023-01-09T01:21:10.145Z,6.72
2023-01-09T01:22:16.308Z,6.72
2023-01-09T01:23:22.541Z,6.72
2023-01-09T01:24:28.705Z,6.72
2023-01-09T01:25:35.121Z,6.72
2023-01-09T01:26:41.298Z,6.72
2023-01-09T01:27:47.503Z,6.72
2023-01-09T01:28:53.658Z,6.72
2023-01-09T01:29:59.807Z,6.72
2023-01-09T01:31:06.097Z,6.72
2023-01-09T01:32:12.328Z,6.72
2023-01-09T01:33:18.493Z,6.72
2023-01-09T01:34:24.659Z,6.72
2023-01-09T01:35:30.928Z,6.72
2023-01-09T01:36:37.100Z,6.72
2023-01-09T01:37:43.344Z,6.72
2023-01-09T01:38:49.509Z,6.72
2023-01-09T01:39:55.712Z,6.72
2023-01-09T01:41:01.866Z,6.72
2023-01-09T01:42:08.044Z,6.72
2023-01-09T01:43:14.213Z,6.72
2023-01-09T01:44:20.376Z,6.72
2023-01-09T01:45:26.766Z,6.72
2023-01-09T01:46:32.919Z,6.72
2023-01-09T01:47:39.092Z,6.72
2023-01-09T01:48:45.260Z,6.72
2023-01-09T01:49:51.428Z,6.72
2023-01-09T01:50:57.745Z,6.72
2023-01-09T01:52:03.906Z,6.72
2023-01-09T01:53:10.078Z,6.72
2023-01-09T01:54:16.297Z,6.72
2023-01-09T01:55:22.632Z,6.72
2023-01-09T01:56:28.807Z,6.72
2023-01-09T01:57:34.976Z,6.72
2023-01-09T01:58:41.186Z,6.72
2023-01-09T01:59:47.339Z,6.72
2023-01-09T02:00:53.824Z,6.72
2023-01-09T02:02:00.301Z,6.72
2023-01-09T02:03:06.607Z,6.72
2023-01-09T02:04:12.838Z,6.72
2023-01-09T02:05:19.172Z,6.72
2023-01-09T02:06:25.317Z,6.72
2023-01-09T02:07:31.607Z,6.72
2023-01-09T02:08:37.763Z,6.72
2023-01-09T02:09:43.947Z,6.72
2023-01-09T02:10:50.226Z,6.72
2023-01-09T02:11:56.458Z,6.72
2023-01-09T02:13:02.643Z,6.72
2023-01-09T02:14:08.795Z,6.72
2023-01-09T02:15:15.119Z,6.72
2023-01-09T02:16:21.406Z,6.72
2023-01-09T02:17:27.588Z,6.72
2023-01-09T02:18:33.750Z,6.72
2023-01-09T02:19:39.898Z,6.72
2023-01-09T02:20:46.327Z,6.72
2023-01-09T02:21:52.482Z,6.72
2023-01-09T02:22:58.641Z,6.72
2023-01-09T02:24:04.846Z,6.72
2023-01-09T02:25:11.118Z,6.72
2023-01-09T02:26:17.281Z,6.72
2023-01-09T02:27:23.448Z,6.72
2023-01-09T02:28:29.647Z,6.72
2023-01-09T02:29:35.830Z,6.72
2023-01-09T02:30:42.522Z,6.72
2023-01-09T02:31:48.737Z,6.72
2023-01-09T02:32:54.891Z,6.72
2023-01-09T02:34:01.043Z,6.72
2023-01-09T02:35:07.450Z,6.72
2023-01-09T02:36:13.621Z,6.72
2023-01-09T02:37:19.779Z,6.72
2023-01-09T02:38:25.956Z,6.72
2023-01-09T02:39:32.129Z,6.72
2023-01-09T02:40:38.455Z,6.72
2023-01-09T02:41:44.704Z,6.72
2023-01-09T02:42:50.859Z,6.72
2023-01-09T02:43:57.020Z,6.72
2023-01-09T02:45:03.366Z,6.72
2023-01-09T02:46:09.600Z,6.72
2023-01-09T02:47:15.848Z,6.72
2023-01-09T02:48:22.033Z,6.72
2023-01-09T02:49:28.206Z,6.72
2023-01-09T02:50:34.511Z,6.72
2023-01-09T02:51:40.722Z,6.72
2023-01-09T02:52:46.878Z,6.72
2023-01-09T02:53:53.050Z,6.72
2023-01-09T02:54:59.220Z,6.72
2023-01-09T02:55:35.822Z,6.27
2023-01-09T02:55:57.436Z,6.27
2023-01-09T02:56:29.580Z,6.22
2023-01-09T02:57:01.592Z,6.22
2023-01-09T02:57:34.121Z,6.22
2023-01-09T02:58:05.649Z,6.22
2023-01-09T02:58:34.361Z,6.22
2023-01-09T02:58:54.096Z,6.22
2023-01-09T02:59:25.462Z,6.22
2023-01-09T02:59:42.445Z,6.22
2023-01-09T03:00:13.670Z,6.22
2023-01-09T03:00:34.307Z,6.27
2023-01-09T03:01:02.335Z,6.27
2023-01-09T03:01:33.789Z,6.27
2023-01-09T03:02:06.254Z,6.27
2023-01-09T03:02:34.631Z,6.27
2023-01-09T03:02:53.478Z,6.27
2023-01-09T03:03:25.540Z,6.27
2023-01-09T03:03:42.450Z,6.27
2023-01-09T03:04:14.127Z,6.27
2023-01-09T03:04:34.435Z,6.27
2023-01-09T03:05:01.596Z,6.22
2023-01-09T03:05:33.570Z,6.22
2023-01-09T03:06:05.608Z,6.22
2023-01-09T03:06:34.995Z,6.22
2023-01-09T03:06:53.549Z,6.22
2023-01-09T03:07:26.147Z,6.22
2023-01-09T03:07:57.473Z,6.22
2023-01-09T03:08:30.275Z,6.22
2023-01-09T03:09:01.683Z,6.22
2023-01-09T03:09:34.249Z,6.22
2023-01-09T03:10:05.602Z,6.22
2023-01-09T03:10:36.029Z,6.22
2023-01-09T03:10:53.640Z,6.22
2023-01-09T03:11:25.569Z,6.22
2023-01-09T03:11:43.134Z,6.22
2023-01-09T03:12:13.499Z,6.22
2023-01-09T03:12:35.039Z,6.11
2023-01-09T03:13:05.176Z,6.11
2023-01-09T03:13:33.420Z,6.11
2023-01-09T03:14:06.269Z,6.11
2023-01-09T03:14:34.506Z,6.11
2023-01-09T03:14:53.546Z,6.11
2023-01-09T03:15:25.742Z,6.11
2023-01-09T03:15:42.426Z,6.11
2023-01-09T03:16:14.128Z,6.11
2023-01-09T03:16:34.280Z,6.11
2023-01-09T03:17:01.621Z,6.00
2023-01-09T03:17:33.507Z,6.00
2023-01-09T03:18:05.579Z,6.00
2023-01-09T03:18:34.341Z,6.00
2023-01-09T03:19:00.604Z,6.00
2023-01-09T03:19:26.304Z,6.00
2023-01-09T03:19:57.613Z,5.88
2023-01-09T03:20:30.370Z,5.88
2023-01-09T03:21:01.500Z,5.88
2023-01-09T03:21:34.806Z,5.88
2023-01-09T03:22:05.708Z,5.88
2023-01-09T03:22:34.251Z,5.88
2023-01-09T03:22:53.457Z,5.88
2023-01-09T03:23:25.587Z,5.88
2023-01-09T03:23:42.469Z,5.77
2023-01-09T03:24:13.451Z,5.77
2023-01-09T03:24:34.429Z,5.77
2023-01-09T03:25:02.553Z,5.77
2023-01-09T03:25:34.072Z,5.77
2023-01-09T03:26:06.215Z,5.77
2023-01-09T03:26:34.340Z,5.77
2023-01-09T03:26:53.401Z,5.77
2023-01-09T03:27:25.426Z,5.77
2023-01-09T03:27:42.409Z,5.77
2023-01-09T03:28:14.147Z,5.77
2023-01-09T03:28:34.912Z,5.77
2023-01-09T03:29:01.669Z,5.72
2023-01-09T03:29:33.495Z,5.72
2023-01-09T03:30:09.527Z,5.72
2023-01-09T03:30:34.592Z,5.72
2023-01-09T03:30:53.572Z,5.72
2023-01-09T03:31:25.709Z,5.72
2023-01-09T03:31:58.592Z,5.72
2023-01-09T03:32:29.439Z,5.72
2023-01-09T03:33:02.385Z,5.72
2023-01-09T03:33:33.578Z,5.72
2023-01-09T03:34:06.385Z,5.72
2023-01-09T03:34:34.320Z,5.72
2023-01-09T03:34:53.520Z,5.72
2023-01-09T03:35:25.747Z,5.72
2023-01-09T03:35:42.399Z,5.72
2023-01-09T03:36:14.137Z,5.72
2023-01-09T03:36:34.394Z,5.72
2023-01-09T03:37:18.146Z,5.72
2023-01-09T03:37:49.502Z,5.72
2023-01-09T03:38:22.273Z,5.72
2023-01-09T03:39:09.475Z,5.72
2023-01-09T03:39:34.606Z,5.72
2023-01-09T03:39:57.602Z,5.72
2023-01-09T03:40:30.553Z,5.72
2023-01-09T03:41:01.585Z,5.61
2023-01-09T03:41:34.452Z,5.61
2023-01-09T03:42:05.553Z,5.61
2023-01-09T03:42:35.356Z,5.61
2023-01-09T03:42:53.433Z,5.61
2023-01-09T03:43:25.609Z,5.61
2023-01-09T03:43:43.007Z,5.61
2023-01-09T03:44:13.571Z,5.61
2023-01-09T03:44:41.169Z,5.61
2023-01-09T03:45:12.583Z,5.61
2023-01-09T03:45:34.497Z,5.61
2023-01-09T03:46:06.401Z,5.61
2023-01-09T03:46:34.292Z,5.61
2023-01-09T03:46:53.524Z,5.61
2023-01-09T03:47:25.620Z,5.61
2023-01-09T03:47:57.822Z,5.50
2023-01-09T03:48:29.502Z,5.50
2023-01-09T03:49:01.618Z,5.50
2023-01-09T03:49:34.214Z,5.50
2023-01-09T03:50:05.594Z,5.50
2023-01-09T03:50:34.689Z,5.50
2023-01-09T03:50:53.706Z,5.50
2023-01-09T03:51:26.104Z,5.50
2023-01-09T03:51:57.457Z,5.50
2023-01-09T03:52:30.208Z,5.50
2023-01-09T03:53:01.671Z,5.50
2023-01-09T03:53:34.400Z,5.50
2023-01-09T03:54:06.168Z,5.50
2023-01-09T03:54:35.396Z,5.50
2023-01-09T03:54:53.635Z,5.50
2023-01-09T03:55:25.603Z,5.50
2023-01-09T03:55:43.164Z,5.50
2023-01-09T03:56:13.567Z,5.50
2023-01-09T03:56:34.342Z,5.50
2023-01-09T03:57:01.589Z,5.61
2023-01-09T03:57:39.789Z,5.61
2023-01-09T03:58:05.607Z,5.61
2023-01-09T03:58:34.387Z,5.61
2023-01-09T03:58:53.450Z,5.61
2023-01-09T03:59:26.271Z,5.61
2023-01-09T03:59:57.625Z,5.72
2023-01-09T04:00:30.442Z,5.72
2023-01-09T04:01:01.684Z,5.72
2023-01-09T04:01:34.706Z,5.72
2023-01-09T04:02:05.705Z,5.72
2023-01-09T04:02:34.290Z,5.72
2023-01-09T04:02:53.494Z,5.72
2023-01-09T04:03:25.654Z,5.72
2023-01-09T04:03:58.554Z,5.72
2023-01-09T04:04:29.444Z,5.77
2023-01-09T04:05:02.448Z,5.77
2023-01-09T04:05:34.054Z,5.77
2023-01-09T04:06:06.266Z,5.77
2023-01-09T04:06:34.384Z,5.77
2023-01-09T04:06:53.607Z,5.77
2023-01-09T04:07:25.460Z,5.77
2023-01-09T04:07:42.387Z,5.88
2023-01-09T04:08:14.443Z,5.88
2023-01-09T04:08:34.273Z,5.88
2023-01-09T04:09:01.641Z,5.88
2023-01-09T04:09:33.452Z,5.88
2023-01-09T04:10:05.729Z,5.88
2023-01-09T04:10:34.425Z,5.88
2023-01-09T04:10:53.658Z,5.88
2023-01-09T04:11:26.246Z,5.88
2023-01-09T04:11:57.681Z,5.88
2023-01-09T04:12:30.170Z,5.88
2023-01-09T04:13:01.546Z,5.88
2023-01-09T04:13:34.465Z,6.00
2023-01-09T04:14:05.605Z,6.00
2023-01-09T04:14:35.006Z,6.00
2023-01-09T04:14:53.444Z,6.00
2023-01-09T04:15:25.834Z,6.00
2023-01-09T04:15:42.898Z,6.00
2023-01-09T04:16:13.664Z,6.00
2023-01-09T04:16:34.626Z,6.00
2023-01-09T04:17:01.493Z,6.00
2023-01-09T04:17:34.986Z,6.00
2023-01-09T04:18:06.253Z,6.00
2023-01-09T04:18:34.292Z,6.00
2023-01-09T04:18:53.482Z,6.00
2023-01-09T04:19:25.615Z,6.11
2023-01-09T04:19:57.851Z,6.11
2023-01-09T04:20:29.612Z,6.11
2023-01-09T04:21:01.562Z,6.11
2023-01-09T04:21:33.536Z,6.11
2023-01-09T04:22:05.713Z,6.22
2023-01-09T04:22:34.278Z,6.22
2023-01-09T04:22:53.509Z,6.22
2023-01-09T04:23:26.143Z,6.22
2023-01-09T04:23:58.035Z,6.22
2023-01-09T04:24:30.495Z,6.22
2023-01-09T04:25:01.744Z,6.22
2023-01-09T04:25:34.382Z,6.22
2023-01-09T04:26:05.509Z,6.22
2023-01-09T04:26:34.436Z,6.22
2023-01-09T04:26:53.570Z,6.22
2023-01-09T04:27:25.602Z,6.22
2023-01-09T04:27:42.371Z,6.22
2023-01-09T04:28:13.457Z,6.22
2023-01-09T04:28:34.977Z,6.22
2023-01-09T04:29:02.215Z,6.22
2023-01-09T04:29:33.396Z,6.27
2023-01-09T04:30:06.675Z,6.27
2023-01-09T04:30:34.430Z,6.27
2023-01-09T04:30:53.684Z,6.27
2023-01-09T04:31:25.524Z,6.27
2023-01-09T04:31:42.610Z,6.27
2023-01-09T04:32:14.147Z,6.27
2023-01-09T04:32:34.300Z,6.27
2023-01-09T04:33:02.001Z,6.27
2023-01-09T04:33:33.532Z,6.27
2023-01-09T04:34:05.670Z,6.27
2023-01-09T04:34:34.672Z,6.27
2023-01-09T04:34:53.438Z,6.27
2023-01-09T04:35:26.564Z,6.27
2023-01-09T04:35:57.587Z,6.27
2023-01-09T04:36:30.189Z,6.38
2023-01-09T04:37:01.529Z,6.38
2023-01-09T04:37:34.880Z,6.38
2023-01-09T04:38:05.542Z,6.38
2023-01-09T04:38:35.290Z,6.38
2023-01-09T04:38:53.497Z,6.38
2023-01-09T04:39:25.569Z,6.38
2023-01-09T04:39:42.576Z,6.38
2023-01-09T04:40:13.634Z,6.38
2023-01-09T04:40:34.608Z,6.38
2023-01-09T04:41:02.298Z,6.38
2023-01-09T04:41:34.101Z,6.38
2023-01-09T04:42:06.305Z,6.38
2023-01-09T04:42:34.420Z,6.38
2023-01-09T04:42:53.572Z,6.38
2023-01-09T04:43:25.533Z,6.38
2023-01-09T04:43:42.410Z,6.38
2023-01-09T04:44:14.170Z,6.38
2023-01-09T04:44:34.325Z,6.38
2023-01-09T04:45:01.958Z,6.38
2023-01-09T04:45:33.535Z,6.38
2023-01-09T04:46:05.720Z,6.38
2023-01-09T04:46:34.420Z,6.38
2023-01-09T04:46:53.549Z,6.38
2023-01-09T04:47:26.254Z,6.38
2023-01-09T04:47:57.595Z,6.38
2023-01-09T04:48:30.273Z,6.38
2023-01-09T04:49:01.434Z,6.38
2023-01-09T04:49:35.436Z,6.38
2023-01-09T04:50:05.727Z,6.38
2023-01-09T04:50:34.321Z,6.38
2023-01-09T04:50:53.585Z,6.38
2023-01-09T04:51:25.632Z,6.38
2023-01-09T04:51:58.419Z,6.38
2023-01-09T04:52:29.456Z,6.38
2023-01-09T04:53:02.262Z,6.38
2023-01-09T04:53:33.585Z,6.38
2023-01-09T04:54:06.292Z,6.38
2023-01-09T04:54:34.314Z,6.38
2023-01-09T04:54:53.597Z,6.38
2023-01-09T04:55:25.724Z,6.38
2023-01-09T04:55:57.529Z,6.50
2023-01-09T04:56:29.413Z,6.50
2023-01-09T04:57:01.663Z,6.50
2023-01-09T04:57:34.119Z,6.50
2023-01-09T04:58:05.463Z,6.50
2023-01-09T04:58:34.385Z,6.50
2023-01-09T04:58:53.558Z,6.50
2023-01-09T04:59:26.171Z,6.50
2023-01-09T04:59:59.581Z,6.50
2023-01-09T05:00:30.583Z,6.50
2023-01-09T05:01:01.912Z,6.50
2023-01-09T05:01:34.599Z,6.50
2023-01-09T05:02:05.923Z,6.50
2023-01-09T05:02:34.437Z,6.50
2023-01-09T05:02:53.553Z,6.50
2023-01-09T05:03:25.588Z,6.61
2023-01-09T05:03:42.162Z,6.61
2023-01-09T05:04:13.658Z,6.61
2023-01-09T05:04:34.372Z,6.61
2023-01-09T05:05:02.517Z,6.61
2023-01-09T05:05:33.518Z,6.61
2023-01-09T05:06:08.659Z,6.61
2023-01-09T05:06:34.416Z,6.61
2023-01-09T05:06:53.541Z,6.61
2023-01-09T05:07:25.668Z,6.61
2023-01-09T05:07:57.776Z,6.61
2023-01-09T05:08:29.530Z,6.61
2023-01-09T05:09:01.712Z,6.50
2023-01-09T05:09:33.639Z,6.50
2023-01-09T05:10:05.621Z,6.50
2023-01-09T05:10:34.451Z,6.61
2023-01-09T05:10:53.655Z,6.61
2023-01-09T05:11:26.086Z,6.61
2023-01-09T05:11:57.456Z,6.61
2023-01-09T05:12:30.297Z,6.61
2023-01-09T05:13:01.556Z,6.61
2023-01-09T05:13:34.306Z,6.61
2023-01-09T05:14:05.513Z,6.61
2023-01-09T05:14:35.143Z,6.61
2023-01-09T05:14:53.597Z,6.61
2023-01-09T05:15:25.899Z,6.61
2023-01-09T05:15:43.247Z,6.61
2023-01-09T05:16:13.583Z,6.61
2023-01-09T05:16:34.440Z,6.61
2023-01-09T05:17:01.609Z,6.61
2023-01-09T05:17:33.453Z,6.61
2023-01-09T05:18:06.381Z,6.61
2023-01-09T05:18:34.721Z,6.61
2023-01-09T05:18:53.581Z,6.61
2023-01-09T05:19:25.467Z,6.61
2023-01-09T05:19:42.551Z,6.61
2023-01-09T05:20:14.489Z,6.61
2023-01-09T05:20:34.288Z,6.61
2023-01-09T05:21:01.468Z,6.61
2023-01-09T05:21:34.271Z,6.61
2023-01-09T05:22:05.735Z,6.61
2023-01-09T05:22:34.709Z,6.61
2023-01-09T05:22:53.476Z,6.61
2023-01-09T05:23:27.091Z,6.61
2023-01-09T05:23:57.617Z,6.61
2023-01-09T05:24:30.341Z,6.61
2023-01-09T05:25:01.773Z,6.61
2023-01-09T05:25:34.474Z,6.61
2023-01-09T05:26:05.481Z,6.61
2023-01-09T05:26:35.096Z,6.61
2023-01-09T05:26:53.542Z,6.61
2023-01-09T05:27:25.594Z,6.61
2023-01-09T05:27:43.172Z,6.61
2023-01-09T05:28:13.482Z,6.61
2023-01-09T05:28:34.464Z,6.61
2023-01-09T05:29:01.593Z,6.61
2023-01-09T05:29:33.519Z,6.72
2023-01-09T05:30:06.512Z,6.72
2023-01-09T05:30:35.129Z,6.72
2023-01-09T05:30:53.740Z,6.72
2023-01-09T05:31:25.660Z,6.72
2023-01-09T05:31:42.275Z,6.61
2023-01-09T05:32:14.294Z,6.72
2023-01-09T05:32:34.429Z,6.72
2023-01-09T05:33:01.963Z,6.72
2023-01-09T05:33:33.570Z,6.72
2023-01-09T05:34:05.564Z,6.72
2023-01-09T05:34:34.444Z,6.72
2023-01-09T05:34:53.571Z,6.72
2023-01-09T05:35:26.342Z,6.72
2023-01-09T05:35:57.556Z,6.72
2023-01-09T05:36:30.122Z,6.72
2023-01-09T05:37:01.624Z,6.72
2023-01-09T05:37:34.310Z,6.72
2023-01-09T05:38:05.604Z,6.72
2023-01-09T05:38:36.031Z,6.72
2023-01-09T05:38:53.572Z,6.72
2023-01-09T05:39:36.318Z,6.72
2023-01-09T05:39:57.532Z,6.72
2023-01-09T05:40:39.620Z,6.72
2023-01-09T05:41:02.390Z,6.72
2023-01-09T05:41:33.588Z,6.72
2023-01-09T05:42:06.220Z,6.72
2023-01-09T05:42:34.931Z,6.72
2023-01-09T05:42:53.499Z,6.72
2023-01-09T05:43:25.585Z,6.72
2023-01-09T05:43:42.548Z,6.72
2023-01-09T05:44:14.216Z,6.72
2023-01-09T05:44:34.515Z,6.72
2023-01-09T05:45:01.794Z,6.72
2023-01-09T05:45:33.623Z,6.72
2023-01-09T05:46:05.567Z,6.77
2023-01-09T05:46:34.376Z,6.77
2023-01-09T05:46:53.641Z,6.77
2023-01-09T05:47:26.207Z,6.77
2023-01-09T05:47:57.562Z,6.77
2023-01-09T05:48:31.271Z,6.77
2023-01-09T05:49:01.640Z,6.77
2023-01-09T05:49:34.277Z,6.77
2023-01-09T05:50:05.682Z,6.77
2023-01-09T05:50:36.343Z,6.77
2023-01-09T05:50:53.712Z,6.72
2023-01-09T05:51:25.616Z,6.72
2023-01-09T05:51:43.177Z,6.72
2023-01-09T05:52:13.634Z,6.72
2023-01-09T05:52:34.412Z,6.72
2023-01-09T05:53:01.630Z,6.72
2023-01-09T05:53:33.499Z,6.72
2023-01-09T05:54:06.324Z,6.72
2023-01-09T05:54:34.491Z,6.72
2023-01-09T05:54:53.563Z,6.72
2023-01-09T05:55:25.651Z,6.72
2023-01-09T05:55:57.849Z,6.72
2023-01-09T05:56:29.649Z,6.72
2023-01-09T05:57:01.662Z,6.72
2023-01-09T05:57:33.566Z,6.72
2023-01-09T05:58:05.637Z,6.72
2023-01-09T05:58:35.218Z,6.72
2023-01-09T05:58:53.545Z,6.72
2023-01-09T05:59:26.344Z,6.61
2023-01-09T05:59:57.951Z,6.61
2023-01-09T06:00:30.537Z,6.61
2023-01-09T06:01:01.577Z,6.61
2023-01-09T06:01:35.932Z,6.72
2023-01-09T06:02:05.665Z,6.72
2023-01-09T06:02:34.434Z,6.72
2023-01-09T06:02:53.664Z,6.72
2023-01-09T06:03:25.601Z,6.72
2023-01-09T06:03:42.535Z,6.72
2023-01-09T06:04:13.468Z,6.72
2023-01-09T06:04:34.535Z,6.72
2023-01-09T06:05:02.553Z,6.72
2023-01-09T06:05:33.571Z,6.72
2023-01-09T06:06:06.373Z,6.72
2023-01-09T06:06:34.727Z,6.72
2023-01-09T06:06:53.625Z,6.72
2023-01-09T06:07:25.720Z,6.72
2023-01-09T06:07:42.442Z,6.72
2023-01-09T06:08:14.297Z,6.72
2023-01-09T06:08:34.495Z,6.77
2023-01-09T06:09:01.616Z,6.77
2023-01-09T06:09:33.866Z,6.77
2023-01-09T06:10:05.689Z,6.77
2023-01-09T06:10:34.712Z,6.77
2023-01-09T06:10:53.687Z,6.77
2023-01-09T06:11:26.353Z,6.77
2023-01-09T06:11:57.814Z,6.77
2023-01-09T06:12:30.295Z,6.77
2023-01-09T06:13:01.514Z,6.77
2023-01-09T06:13:34.824Z,6.77
2023-01-09T06:14:05.619Z,6.77
2023-01-09T06:14:34.516Z,6.77
2023-01-09T06:14:53.473Z,6.77
2023-01-09T06:15:25.724Z,6.88
2023-01-09T06:15:42.837Z,6.88
2023-01-09T06:16:13.768Z,6.77
2023-01-09T06:16:35.117Z,6.77
2023-01-09T06:17:02.359Z,6.77
2023-01-09T06:17:33.548Z,6.77
2023-01-09T06:18:06.199Z,6.77
2023-01-09T06:18:34.440Z,6.77
2023-01-09T06:18:53.543Z,6.77
2023-01-09T06:19:34.402Z,6.88
2023-01-09T06:19:57.698Z,6.88
2023-01-09T06:20:29.622Z,6.88
2023-01-09T06:21:01.619Z,6.88
2023-01-09T06:21:33.691Z,6.88
2023-01-09T06:22:22.332Z,6.88
2023-01-09T06:22:53.568Z,6.88
2023-01-09T06:23:27.144Z,6.88
2023-01-09T06:23:57.613Z,6.88
2023-01-09T06:24:30.260Z,6.88
2023-01-09T06:25:01.736Z,6.88
2023-01-09T06:25:34.257Z,6.88
2023-01-09T06:26:05.489Z,6.88
2023-01-09T06:26:35.295Z,6.88
2023-01-09T06:26:53.572Z,6.88
2023-01-09T06:27:25.647Z,6.88
2023-01-09T06:27:58.315Z,6.88
2023-01-09T06:28:34.879Z,6.88
2023-01-09T06:29:02.213Z,6.88
2023-01-09T06:29:33.760Z,6.88
2023-01-09T06:30:06.652Z,7.00
2023-01-09T06:30:34.530Z,7.00
2023-01-09T06:30:53.854Z,7.00
2023-01-09T06:31:25.544Z,7.00
2023-01-09T06:31:42.522Z,7.00
2023-01-09T06:32:14.335Z,7.00
2023-01-09T06:32:34.493Z,7.00
2023-01-09T06:33:02.001Z,7.00
2023-01-09T06:33:33.633Z,7.00
2023-01-09T06:34:05.910Z,7.00
2023-01-09T06:34:35.159Z,7.00
2023-01-09T06:34:53.518Z,7.00
2023-01-09T06:35:26.409Z,7.00
2023-01-09T06:35:57.642Z,7.00
2023-01-09T06:36:30.141Z,7.00
2023-01-09T06:37:01.513Z,7.00
2023-01-09T06:37:34.512Z,7.00
2023-01-09T06:38:05.650Z,7.00
2023-01-09T06:38:35.294Z,7.00
2023-01-09T06:38:53.573Z,7.00
2023-01-09T06:39:25.614Z,7.00
2023-01-09T06:39:43.013Z,7.11
2023-01-09T06:40:13.763Z,7.11
2023-01-09T06:40:34.951Z,7.11
2023-01-09T06:41:17.726Z,7.11
2023-01-09T06:41:49.652Z,7.11
2023-01-09T06:42:21.500Z,7.11
2023-01-09T06:42:57.243Z,7.11
2023-01-09T06:43:25.642Z,7.11
2023-01-09T06:43:57.854Z,7.11
2023-01-09T06:44:30.364Z,7.11
2023-01-09T06:45:01.725Z,7.11
2023-01-09T06:45:34.488Z,7.11
2023-01-09T06:46:05.836Z,7.11
2023-01-09T06:46:36.585Z,7.11
2023-01-09T06:46:53.513Z,7.11
2023-01-09T06:47:25.485Z,7.11
2023-01-09T06:47:43.009Z,7.11
2023-01-09T06:48:13.679Z,7.11
2023-01-09T06:48:34.421Z,7.11
2023-01-09T06:49:01.516Z,7.11
2023-01-09T06:49:33.747Z,7.11
2023-01-09T06:50:07.292Z,7.11
2023-01-09T06:50:34.819Z,7.11
2023-01-09T06:50:53.728Z,7.11
2023-01-09T06:51:25.597Z,7.11
2023-01-09T06:51:42.501Z,7.11
2023-01-09T06:52:14.369Z,7.11
2023-01-09T06:52:34.466Z,7.11
2023-01-09T06:53:01.488Z,7.11
2023-01-09T06:53:33.708Z,7.22
2023-01-09T06:54:05.639Z,7.22
2023-01-09T06:54:34.320Z,7.22
2023-01-09T06:54:53.536Z,7.22
2023-01-09T06:55:26.409Z,7.22
2023-01-09T06:55:57.613Z,7.22
2023-01-09T06:56:30.238Z,7.22
2023-01-09T06:57:01.611Z,7.22
2023-01-09T06:57:34.493Z,7.22
2023-01-09T06:58:05.503Z,7.22
2023-01-09T06:58:40.320Z,7.22
2023-01-09T06:59:09.619Z,7.22
2023-01-09T06:59:34.659Z,7.22
2023-01-09T06:59:57.472Z,7.22
2023-01-09T07:00:29.988Z,7.22
2023-01-09T07:01:02.397Z,7.22
2023-01-09T07:01:33.693Z,7.22
2023-01-09T07:02:06.417Z,7.22
2023-01-09T07:02:34.496Z,7.22
2023-01-09T07:02:53.654Z,7.22
2023-01-09T07:03:25.513Z,7.22
2023-01-09T07:03:42.541Z,7.22
2023-01-09T07:04:14.229Z,7.22
2023-01-09T07:04:35.031Z,7.22
2023-01-09T07:05:01.632Z,7.27
2023-01-09T07:05:33.712Z,7.27
2023-01-09T07:06:05.605Z,7.27
2023-01-09T07:06:34.431Z,7.27
2023-01-09T07:06:53.538Z,7.27
2023-01-09T07:07:26.319Z,7.27
2023-01-09T07:07:57.625Z,7.27
2023-01-09T07:08:30.311Z,7.27
2023-01-09T07:09:01.539Z,7.27
2023-01-09T07:09:34.749Z,7.27
2023-01-09T07:10:05.777Z,7.27
2023-01-09T07:10:38.978Z,7.22
2023-01-09T07:11:09.833Z,7.22
2023-01-09T07:11:34.496Z,7.22
2023-01-09T07:11:58.074Z,7.22
2023-01-09T07:12:29.527Z,7.22
2023-01-09T07:13:02.299Z,7.22
2023-01-09T07:13:33.697Z,7.22
2023-01-09T07:14:06.375Z,7.22
2023-01-09T07:14:34.514Z,7.22
2023-01-09T07:14:55.194Z,7.22
2023-01-09T07:15:25.830Z,7.22
2023-01-09T07:15:42.215Z,7.22
2023-01-09T07:16:14.418Z,7.22
2023-01-09T07:16:34.396Z,7.22
2023-01-09T07:17:01.621Z,7.22
2023-01-09T07:17:34.196Z,7.22
2023-01-09T07:18:05.605Z,7.22
2023-01-09T07:18:34.473Z,7.22
2023-01-09T07:18:53.642Z,7.22
2023-01-09T07:19:26.326Z,7.22
2023-01-09T07:19:57.711Z,7.22
2023-01-09T07:20:30.716Z,7.22
2023-01-09T07:21:01.508Z,7.22
2023-01-09T07:21:34.920Z,7.22
2023-01-09T07:22:05.749Z,7.22
2023-01-09T07:22:34.489Z,7.22
2023-01-09T07:22:53.556Z,7.22
2023-01-09T07:23:25.696Z,7.22
2023-01-09T07:23:42.566Z,7.22
2023-01-09T07:24:13.511Z,7.22
2023-01-09T07:24:34.735Z,7.22
2023-01-09T07:25:03.245Z,7.22
2023-01-09T07:25:33.720Z,7.22
2023-01-09T07:26:06.449Z,7.22
2023-01-09T07:26:34.444Z,7.22
2023-01-09T07:26:53.653Z,7.22
2023-01-09T07:27:25.551Z,7.22
2023-01-09T07:27:42.397Z,7.22
2023-01-09T07:28:14.386Z,7.27
2023-01-09T07:28:34.677Z,7.22
2023-01-09T07:29:01.720Z,7.22
2023-01-09T07:29:33.552Z,7.22
2023-01-09T07:30:05.904Z,7.22
2023-01-09T07:30:34.853Z,7.22
2023-01-09T07:30:53.630Z,7.22
2023-01-09T07:31:26.515Z,7.27
2023-01-09T07:31:57.641Z,7.27